Thursday, May 24, 2018, 12:32 AM EDT
Back to Local

KNEL, Lakehurst Naval Air Station

Location: Lakehurst, NJ, United States Lat: 40.033
Local Time: 12:32 AM EDT ( 4:32 GMT) Lon: -74.317
Time Zone: US/Eastern Elev: 101 ft

Show me the last for .
Show Decoded

2018-05-23 23:55 METAR KNEL 240355Z 00000KT 7SM CLR 20/15 A2996 RMK AO2A SLPNO WND DATA ESTMD
                 ALSTG ESTMD T02030145 $ =
2018-05-23 22:55 METAR KNEL 240255Z 00000KT 7SM CLR 19/14 A2995 RMK AO2A SLPNO WND DATA ESTMD
                 ALSTG ESTMD T01860143 $ =
2018-05-23 21:55 METAR KNEL 240155Z 00000KT 7SM CLR 20/15 A2995 RMK AO2A SLPNO WND DATA ESTMD
                 ALSTG ESTMD T02020145 $ =
2018-05-23 20:55 METAR KNEL 240055Z 00000KT 7SM CLR 22/15 A2993 RMK AO2A SLPNO WND DATA ESTMD
                 ALSTG ESTMD T02290153 $ =
2018-05-23 19:55 METAR KNEL 232355Z 00000KT 7SM CLR 25/15 A2991 RMK AO2A SLPNO WND DATA ESTMD
                 ALSTG ESTMD T02490150 $ =
2018-05-23 18:55 METAR KNEL 232255Z 29004KT 7SM CLR 26/13 A2990 RMK AO2A SLPNO WND DATA ESTMD
                 ALSTG ESTMD T02630133 $ =
2018-05-23 17:55 METAR KNEL 232155Z 00000KT 7SM CLR 27/14 A2989 RMK AO2A SLPNO WND DATA ESTMD
                 ALSTG ESTMD T02660143 $ =
2018-05-23 16:55 METAR KNEL 232055Z 19005KT 7SM SCT050 28/15 A2989 RMK AO2A SLPNO WND DATA ESTMD
                 ALSTG ESTMD T02750146 $ =
2018-05-23 15:55 METAR KNEL 231955Z 30005KT 7SM BKN040 27/15 A2988 RMK AO2A SLPNO WND DATA ESTMD
                 ALSTG ESTMD T02730154 $ =
2018-05-23 14:55 METAR KNEL 231855Z 32008KT 7SM BKN040 26/16 A2988 RMK AO2A SLPNO WND DATA ESTMD
                 ALSTG ESTMD T02630157 $ =
2018-05-23 13:55 METAR KNEL 231755Z 32011KT 7SM BKN040 26/16 A2988 RMK AO2A SLPNO WND DATA ESTMD
                 ALSTG ESTMD T02550158 $ =
2018-05-23 12:55 METAR KNEL 231655Z 31012KT 7SM BKN030 26/17 A2988 RMK AO2A SLPNO WND DATA ESTMD
                 ALSTG ESTMD T02610173 $ =
2018-05-23 11:55 METAR KNEL 231555Z 36008KT 7SM BKN020 24/18 A2988 RMK AO2A SLPNO WND DATA ESTMD
                 ALSTG ESTMD T02410177 $ =
2018-05-23 10:55 METAR KNEL 231455Z 34008KT 7SM BKN010 21/17 A2988 RMK AO2A SLPNO WND DATA ESTMD
                 ALSTG ESTMD T02140170 $ =
2018-05-23 09:55 METAR KNEL 231355Z 30007KT 5SM BR BKN005 OVC010 20/18 A2987 RMK AO2A SLPNO WND
                 DATA ESTMD ALSTG ESTMD T02000175 $ =
2018-05-23 08:55 METAR KNEL 231255Z 29007KT 6SM BR SCT005 OVC020 20/18 A2987 RMK AO2A SLPNO WND
                 DATA ESTMD ALSTG ESTMD T01970175 $ =
2018-05-23 07:55 METAR KNEL 231155Z 00000KT 7SM FEW005 BKN020 22/18 A2985 RMK AO2A SLPNO WND DATA
                 ESTMD ALSTG ESTMD T02200178 $ =

Support USWX by starting your Amazon purchase here.